Time;durP1;ratioP1;P1;durP2;ratioP2;P2;SDS_P1;SDS_P2;PMS_P1;PMS_P2;Temp;Humidity;BMP_temperature;BMP_pressure;BME280_temperature;BME280_humidity;BME280_pressure;Samples;Min_cycle;Max_cycle;Signal;HPM_P1;HPM_P2
2023/01/14 00:01:24;;;;;;;22.05;7.15;;;7.00;99.90;;;;;;5093392;28;20188;-53
2023/01/14 00:03:50;;;;;;;18.23;5.07;;;7.00;99.90;;;;;;5093267;28;20626;-54
2023/01/14 00:06:18;;;;;;;23.45;6.70;;;6.90;99.90;;;;;;5093394;28;20287;-53
2023/01/14 00:08:45;;;;;;;22.70;5.43;;;6.90;99.90;;;;;;5093328;28;20184;-56
2023/01/14 00:11:13;;;;;;;24.50;7.00;;;7.00;99.90;;;;;;5093525;28;20200;-57
2023/01/14 00:13:40;;;;;;;22.02;5.95;;;6.90;99.90;;;;;;5077768;28;20177;-56
2023/01/14 00:16:07;;;;;;;24.42;7.20;;;6.90;99.90;;;;;;5062567;28;20177;-55
2023/01/14 00:18:34;;;;;;;25.60;7.28;;;6.80;99.90;;;;;;5097341;28;20170;-55
2023/01/14 00:21:06;;;;;;;29.67;6.28;;;6.90;99.90;;;;;;5079489;28;20181;-55
2023/01/14 00:23:33;;;;;;;24.02;6.60;;;6.80;99.90;;;;;;5097434;28;20314;-55
2023/01/14 00:26:13;;;;;;;24.00;5.90;;;6.80;99.90;;;;;;5097348;28;20230;-57
2023/01/14 00:28:40;;;;;;;29.33;6.40;;;6.90;99.90;;;;;;5097140;28;20180;-55
2023/01/14 00:31:15;;;;;;;25.85;7.65;;;6.90;99.90;;;;;;5097223;28;20181;-55
2023/01/14 00:33:41;;;;;;;28.10;6.30;;;6.90;99.90;;;;;;5096933;28;20169;-55
2023/01/14 00:36:12;;;;;;;24.27;7.13;;;6.90;99.90;;;;;;5097127;28;20801;-55
2023/01/14 00:38:38;;;;;;;27.73;6.95;;;6.90;99.90;;;;;;5097137;28;20173;-54
2023/01/14 00:41:15;;;;;;;24.50;6.38;;;6.90;99.90;;;;;;5097026;28;20177;-55
2023/01/14 00:43:43;;;;;;;28.67;5.75;;;6.90;99.90;;;;;;5097055;28;20279;-53
2023/01/14 00:46:15;;;;;;;25.83;8.20;;;6.80;99.90;;;;;;5078751;28;20232;-55
2023/01/14 00:48:41;;;;;;;31.50;8.55;;;6.90;99.90;;;;;;5096862;28;20178;-54
2023/01/14 00:51:07;;;;;;;29.95;6.47;;;6.90;99.90;;;;;;5078797;28;20173;-55
2023/01/14 00:53:33;;;;;;;26.10;8.00;;;6.80;99.90;;;;;;5096726;28;20172;-54
2023/01/14 00:55:58;;;;;;;28.55;6.05;;;6.80;99.90;;;;;;5096593;28;20268;-53
2023/01/14 00:58:24;;;;;;;28.40;7.20;;;6.70;99.90;;;;;;5096987;28;20261;-53
2023/01/14 01:00:52;;;;;;;25.65;8.32;;;6.70;99.90;;;;;;5096807;28;20173;-56
2023/01/14 01:03:18;;;;;;;21.17;5.25;;;6.70;99.90;;;;;;5096680;28;20190;-54
2023/01/14 01:05:44;;;;;;;30.48;7.18;;;6.70;99.90;;;;;;5096460;28;20200;-55
2023/01/14 01:08:12;;;;;;;24.85;6.30;;;6.70;99.90;;;;;;5078374;28;20225;-55
2023/01/14 01:10:38;;;;;;;26.13;8.00;;;6.70;99.90;;;;;;5096464;28;20169;-54
2023/01/14 01:13:04;;;;;;;29.80;6.18;;;6.70;99.90;;;;;;5061791;28;20573;-56
2023/01/14 01:15:34;;;;;;;30.45;8.35;;;6.70;99.90;;;;;;5096337;28;20261;-55
2023/01/14 01:18:01;;;;;;;30.58;8.35;;;6.70;99.90;;;;;;5096170;28;20522;-56
2023/01/14 01:20:27;;;;;;;29.95;8.52;;;6.70;99.90;;;;;;5078023;28;20189;-55
2023/01/14 01:22:53;;;;;;;24.30;5.90;;;6.70;99.90;;;;;;5096237;28;20180;-55
2023/01/14 01:25:19;;;;;;;27.02;6.80;;;6.70;99.90;;;;;;5094836;28;20201;-56
2023/01/14 01:27:44;;;;;;;27.98;8.13;;;6.60;99.90;;;;;;5096219;28;20213;-56
2023/01/14 01:30:11;;;;;;;20.23;5.45;;;6.70;99.90;;;;;;5096236;28;20215;-55
2023/01/14 01:32:36;;;;;;;27.05;8.15;;;6.60;99.90;;;;;;5078152;28;20631;-55
2023/01/14 01:35:02;;;;;;;30.48;6.47;;;6.70;99.90;;;;;;5077949;28;20192;-55
2023/01/14 01:37:28;;;;;;;24.30;5.85;;;6.70;99.90;;;;;;5095904;28;20170;-56
2023/01/14 01:39:54;;;;;;;29.92;6.25;;;6.70;99.90;;;;;;5095757;28;20181;-54
2023/01/14 01:42:23;;;;;;;20.65;5.60;;;6.70;99.90;;;;;;5061141;28;20215;-55
2023/01/14 01:44:48;;;;;;;29.88;8.00;;;6.60;99.90;;;;;;5095840;28;20215;-55
2023/01/14 01:47:16;;;;;;;29.50;7.13;;;6.70;99.90;;;;;;5095738;28;20173;-55
2023/01/14 01:49:42;;;;;;;26.30;5.90;;;6.80;99.90;;;;;;5095772;28;20177;-55
2023/01/14 01:52:15;;;;;;;21.83;5.68;;;6.70;99.90;;;;;;5095679;28;20315;-55
2023/01/14 01:54:46;;;;;;;28.23;5.97;;;6.80;99.90;;;;;;5095773;28;20259;-55
2023/01/14 01:57:14;;;;;;;30.70;5.88;;;6.80;99.90;;;;;;5095463;28;20579;-55
2023/01/14 01:59:44;;;;;;;27.55;6.75;;;6.80;99.90;;;;;;5095688;28;20180;-55
2023/01/14 02:02:11;;;;;;;28.45;7.15;;;6.90;99.90;;;;;;5095480;28;20189;-56
2023/01/14 02:04:37;;;;;;;21.08;5.78;;;7.00;99.90;;;;;;5077174;28;20173;-56
2023/01/14 02:07:12;;;;;;;21.20;5.05;;;7.00;99.90;;;;;;5095577;28;20174;-55
2023/01/14 02:09:38;;;;;;;26.42;5.72;;;7.00;99.90;;;;;;5095494;28;20173;-55
2023/01/14 02:12:13;;;;;;;25.83;7.35;;;7.10;99.90;;;;;;5077277;28;20193;-55
2023/01/14 02:14:41;;;;;;;18.05;4.65;;;7.10;99.90;;;;;;5095502;28;20180;-55
2023/01/14 02:17:35;;;;;;;21.73;6.72;;;7.10;99.90;;;;;;5095078;28;20173;-54
2023/01/14 02:20:18;;;;;;;21.27;5.40;;;7.20;99.90;;;;;;5095406;28;20166;-52
2023/01/14 02:23:01;;;;;;;25.20;4.93;;;7.10;99.90;;;;;;5095064;28;20180;-54
2023/01/14 02:25:51;;;;;;;22.67;4.93;;;7.20;99.90;;;;;;5094536;28;20208;-55
2023/01/14 02:28:48;;;;;;;26.45;6.38;;;7.20;99.90;;;;;;5095250;28;20181;-54
2023/01/14 02:31:25;;;;;;;17.60;4.93;;;7.20;99.90;;;;;;5094948;28;20169;-55
2023/01/14 02:34:09;;;;;;;20.17;5.20;;;7.20;99.90;;;;;;5094758;28;20516;-55
2023/01/14 02:36:49;;;;;;;20.13;5.20;;;7.30;99.90;;;;;;5094790;28;20174;-56
2023/01/14 02:39:35;;;;;;;21.10;6.05;;;7.30;99.90;;;;;;5076811;28;20166;-56
2023/01/14 02:45:01;;;;;;;21.30;5.35;;;7.40;99.90;;;;;;5095369;28;20239;-55
2023/01/14 02:47:29;;;;;;;17.80;4.68;;;7.30;99.90;;;;;;5094665;28;20187;-55
2023/01/14 02:49:57;;;;;;;16.48;4.80;;;7.30;99.90;;;;;;5094512;28;20178;-57
2023/01/14 02:52:24;;;;;;;22.20;5.28;;;7.30;99.90;;;;;;5094419;28;20202;-57
2023/01/14 02:55:02;;;;;;;21.48;5.63;;;7.30;99.90;;;;;;5094338;28;20178;-57
2023/01/14 02:57:58;;;;;;;20.20;4.82;;;7.40;99.90;;;;;;5094450;28;20184;-55
2023/01/14 03:00:38;;;;;;;18.80;5.95;;;7.40;99.90;;;;;;5094312;28;20572;-54
2023/01/14 03:03:49;;;;;;;18.48;4.47;;;7.40;99.90;;;;;;5094222;28;20176;-56
2023/01/14 03:06:29;;;;;;;21.02;4.63;;;7.30;99.90;;;;;;5047585;28;20221;-54
2023/01/14 03:09:06;;;;;;;24.40;5.05;;;7.30;99.90;;;;;;5094331;28;20177;-55
2023/01/14 03:11:55;;;;;;;15.48;4.55;;;7.40;99.90;;;;;;5094249;28;20250;-56
2023/01/14 03:14:47;;;;;;;25.30;6.53;;;7.40;99.90;;;;;;5094051;28;20189;-55
2023/01/14 03:17:55;;;;;;;19.48;5.00;;;7.40;99.90;;;;;;5089194;28;20189;-55
2023/01/14 03:20:30;;;;;;;22.42;5.07;;;7.30;99.90;;;;;;4992343;28;20176;-56
2023/01/14 03:23:00;;;;;;;22.95;6.05;;;7.30;99.90;;;;;;4992435;28;20267;-54
2023/01/14 03:25:29;;;;;;;16.70;5.65;;;7.30;99.90;;;;;;5051444;28;20216;-54
2023/01/14 03:27:58;;;;;;;17.33;5.05;;;7.40;99.90;;;;;;5059391;28;20642;-56
2023/01/14 03:30:32;;;;;;;17.17;4.55;;;7.40;99.90;;;;;;5093652;28;20215;-54
2023/01/14 03:33:11;;;;;;;18.65;5.15;;;7.30;99.90;;;;;;5093889;28;20248;-55
2023/01/14 03:35:41;;;;;;;19.27;4.95;;;7.30;99.90;;;;;;5094143;28;20295;-54
2023/01/14 03:38:15;;;;;;;15.93;4.35;;;7.40;99.90;;;;;;5093778;28;20173;-54
2023/01/14 03:40:42;;;;;;;23.67;6.05;;;7.30;99.90;;;;;;5093657;28;20200;-54
2023/01/14 03:43:25;;;;;;;17.52;4.28;;;7.30;99.90;;;;;;5093623;28;20189;-53
2023/01/14 03:45:51;;;;;;;28.00;6.70;;;7.30;99.90;;;;;;5093451;28;20280;-55
2023/01/14 03:48:17;;;;;;;21.27;6.03;;;7.30;99.90;;;;;;5092950;28;20194;-54
2023/01/14 03:51:08;;;;;;;21.98;5.97;;;7.30;99.90;;;;;;5075452;28;20534;-54
2023/01/14 03:53:51;;;;;;;19.70;4.72;;;7.40;99.90;;;;;;5082095;28;20182;-53
2023/01/14 03:56:26;;;;;;;18.85;4.43;;;7.40;99.90;;;;;;5093673;28;20180;-55
2023/01/14 03:59:00;;;;;;;21.65;5.93;;;7.30;99.90;;;;;;5093838;28;20163;-55
2023/01/14 04:01:52;;;;;;;20.42;5.40;;;7.40;99.90;;;;;;5075380;28;20239;-55
2023/01/14 04:04:19;;;;;;;21.77;4.90;;;7.50;99.90;;;;;;5082140;28;20182;-55
2023/01/14 04:06:45;;;;;;;20.67;5.50;;;7.40;99.90;;;;;;5093111;28;20215;-55
2023/01/14 04:09:11;;;;;;;26.50;5.25;;;7.40;99.90;;;;;;5093268;28;20172;-56
2023/01/14 04:11:37;;;;;;;21.30;4.75;;;7.50;99.90;;;;;;5093315;28;20197;-54
2023/01/14 04:16:47;;;;;;;17.33;5.25;;;7.50;99.90;;;;;;5093713;28;20193;-56
2023/01/14 04:19:13;;;;;;;17.75;5.03;;;7.40;99.90;;;;;;5075352;28;20644;-55
2023/01/14 04:21:39;;;;;;;16.35;5.78;;;7.40;99.90;;;;;;5093410;28;20174;-53
2023/01/14 04:24:05;;;;;;;20.67;6.03;;;7.40;99.90;;;;;;5093395;28;20227;-54
2023/01/14 04:26:31;;;;;;;16.40;4.57;;;7.40;99.90;;;;;;5092959;28;20685;-55
2023/01/14 04:28:57;;;;;;;16.80;4.38;;;7.50;99.90;;;;;;5093594;28;20189;-55
2023/01/14 04:31:23;;;;;;;20.95;5.63;;;7.50;99.90;;;;;;5093337;28;20554;-55
2023/01/14 04:33:49;;;;;;;16.63;6.03;;;7.70;99.90;;;;;;5093072;28;20162;-57
2023/01/14 04:36:15;;;;;;;22.45;6.07;;;7.70;99.90;;;;;;5093132;28;20181;-56
2023/01/14 04:38:40;;;;;;;21.08;4.35;;;7.80;99.90;;;;;;5092934;28;20207;-55
2023/01/14 04:42:25;;;;;;;18.52;5.10;;;7.70;99.90;;;;;;5093085;28;20240;-55
2023/01/14 04:43:52;;;;;;;20.45;5.22;;;7.70;99.90;;;;;;5092788;28;20200;-56
2023/01/14 04:46:18;;;;;;;21.50;5.30;;;7.70;99.90;;;;;;5092963;28;20205;-55
2023/01/14 04:48:44;;;;;;;20.85;5.22;;;7.80;99.90;;;;;;5093272;28;20185;-55
2023/01/14 04:51:09;;;;;;;14.63;4.07;;;7.70;99.90;;;;;;5093012;28;20631;-55
2023/01/14 04:53:35;;;;;;;14.82;4.07;;;7.70;99.90;;;;;;5092751;28;20174;-55
2023/01/14 04:56:00;;;;;;;21.95;5.22;;;7.70;99.90;;;;;;5093043;28;20527;-56
2023/01/14 04:58:26;;;;;;;18.00;5.28;;;7.70;99.90;;;;;;5075268;28;20646;-55
2023/01/14 05:00:52;;;;;;;18.52;5.45;;;7.70;99.90;;;;;;5096713;28;20623;-55
2023/01/14 05:03:18;;;;;;;18.90;5.53;;;7.80;99.90;;;;;;5096658;28;20623;-55
2023/01/14 05:05:45;;;;;;;20.17;5.47;;;7.80;99.90;;;;;;5078256;28;20658;-55
2023/01/14 05:08:11;;;;;;;12.15;4.20;;;7.80;99.90;;;;;;5096407;28;20194;-55
2023/01/14 05:10:38;;;;;;;15.65;4.40;;;7.70;99.90;;;;;;5096415;28;20623;-55
2023/01/14 05:13:05;;;;;;;19.35;4.80;;;7.70;99.90;;;;;;5096663;28;20188;-56
2023/01/14 05:15:36;;;;;;;16.05;4.65;;;7.70;99.90;;;;;;5096431;28;20200;-56
2023/01/14 05:18:04;;;;;;;16.08;4.90;;;7.90;99.90;;;;;;5096473;28;20255;-56
2023/01/14 05:20:29;;;;;;;19.23;5.18;;;7.90;99.90;;;;;;5077970;28;20269;-55
2023/01/14 05:23:01;;;;;;;16.58;4.13;;;7.90;99.90;;;;;;5096416;28;20194;-55
2023/01/14 05:25:28;;;;;;;16.85;4.80;;;7.90;99.90;;;;;;5096314;28;20205;-55
2023/01/14 05:27:57;;;;;;;15.93;4.70;;;7.90;99.90;;;;;;5096211;28;20293;-55
2023/01/14 05:30:22;;;;;;;17.15;5.18;;;7.90;99.90;;;;;;5096045;28;20680;-55
2023/01/14 05:32:48;;;;;;;17.98;5.15;;;7.90;99.90;;;;;;5096259;28;20173;-57
2023/01/14 05:35:14;;;;;;;17.13;5.15;;;7.90;99.90;;;;;;5095864;28;20182;-55
2023/01/14 05:37:39;;;;;;;19.58;5.07;;;7.90;99.90;;;;;;5095848;28;20165;-56
2023/01/14 05:40:06;;;;;;;15.82;5.05;;;8.00;99.90;;;;;;5096060;28;20182;-56
2023/01/14 05:45:41;;;;;;;18.90;5.95;;;7.90;99.90;;;;;;5071769;28;20231;-56
2023/01/14 05:48:10;;;;;;;16.42;4.97;;;7.90;99.90;;;;;;5095995;28;20199;-55
2023/01/14 05:50:37;;;;;;;16.25;4.20;;;8.00;99.90;;;;;;5095818;28;20198;-54
2023/01/14 05:53:04;;;;;;;16.27;4.35;;;8.00;99.90;;;;;;5095769;28;20173;-55
2023/01/14 05:55:30;;;;;;;19.42;5.85;;;8.00;99.90;;;;;;5095553;28;20179;-55
2023/01/14 05:58:00;;;;;;;16.00;4.78;;;8.00;99.90;;;;;;5095463;28;20185;-56
2023/01/14 06:08:41;;;;;;;14.15;4.20;;;8.00;99.90;;;;;;5095480;28;20220;-53
2023/01/14 06:11:08;;;;;;;19.58;5.03;;;8.00;99.90;;;;;;5094836;28;20173;-54
2023/01/14 06:13:34;;;;;;;15.30;3.95;;;8.10;99.90;;;;;;5095212;28;20626;-54
2023/01/14 06:16:02;;;;;;;16.50;4.53;;;8.10;99.90;;;;;;5095347;28;20174;-54
2023/01/14 06:18:37;;;;;;;16.02;5.15;;;8.00;99.90;;;;;;5095203;28;20269;-54
2023/01/14 06:21:05;;;;;;;11.32;5.05;;;8.10;99.90;;;;;;5095002;28;20184;-54
2023/01/14 06:23:31;;;;;;;14.75;4.80;;;8.10;99.90;;;;;;5095268;28;20182;-54
2023/01/14 06:25:57;;;;;;;19.30;5.78;;;8.00;99.90;;;;;;5095056;28;20261;-55
2023/01/14 06:28:23;;;;;;;14.65;4.95;;;8.10;99.90;;;;;;5076938;28;20186;-54
2023/01/14 06:30:49;;;;;;;14.60;5.50;;;8.10;99.90;;;;;;5094921;28;20185;-55
2023/01/14 06:33:14;;;;;;;17.10;5.22;;;8.10;99.90;;;;;;5094870;28;20538;-54
2023/01/14 06:35:44;;;;;;;15.45;5.32;;;8.00;99.90;;;;;;5094726;28;20268;-55
2023/01/14 06:38:13;;;;;;;13.02;5.15;;;8.10;99.90;;;;;;5094271;28;20180;-54
2023/01/14 06:40:41;;;;;;;13.15;5.13;;;8.00;99.90;;;;;;5094468;28;20253;-54
2023/01/14 06:43:08;;;;;;;14.45;5.45;;;8.10;99.90;;;;;;5094631;28;20189;-55
2023/01/14 06:45:34;;;;;;;10.98;5.18;;;8.20;99.90;;;;;;5076715;28;20209;-54
2023/01/14 06:48:00;;;;;;;11.48;5.25;;;8.10;99.90;;;;;;5094448;28;20173;-55
2023/01/14 06:50:26;;;;;;;13.50;5.13;;;8.10;99.90;;;;;;5094595;28;20222;-54
2023/01/14 06:52:55;;;;;;;13.05;5.70;;;8.20;99.90;;;;;;5094553;28;20171;-55
2023/01/14 06:55:20;;;;;;;15.50;5.20;;;8.30;99.90;;;;;;5094398;28;20209;-54
2023/01/14 06:57:46;;;;;;;11.82;5.05;;;8.30;99.90;;;;;;5094421;28;20216;-55
2023/01/14 07:00:13;;;;;;;9.73;4.97;;;8.30;99.90;;;;;;5094260;28;20166;-54
2023/01/14 07:02:39;;;;;;;13.98;5.25;;;8.30;99.90;;;;;;5094107;28;20173;-56
2023/01/14 07:05:05;;;;;;;13.50;5.45;;;8.30;99.90;;;;;;5094274;28;20559;-54
2023/01/14 07:07:31;;;;;;;13.18;4.97;;;8.30;99.90;;;;;;5076104;28;20182;-54
2023/01/14 07:09:57;;;;;;;14.70;5.10;;;8.40;99.90;;;;;;5070631;28;20197;-54
2023/01/14 07:12:23;;;;;;;12.60;5.18;;;8.30;99.90;;;;;;5074952;28;20182;-55
2023/01/14 07:14:48;;;;;;;14.35;5.05;;;8.40;99.90;;;;;;5075725;28;20178;-55
2023/01/14 07:17:14;;;;;;;15.25;5.13;;;8.40;99.90;;;;;;5093948;28;20865;-54
2023/01/14 07:19:40;;;;;;;13.90;5.10;;;8.50;99.90;;;;;;5093702;28;20181;-56
2023/01/14 07:22:06;;;;;;;12.63;4.72;;;8.50;99.90;;;;;;5074888;28;20178;-54
2023/01/14 07:24:31;;;;;;;14.95;5.13;;;8.50;99.90;;;;;;5075441;28;20181;-55
2023/01/14 07:26:57;;;;;;;14.88;5.07;;;8.50;99.90;;;;;;5058818;28;20227;-54
2023/01/14 07:29:23;;;;;;;15.60;5.25;;;8.50;99.90;;;;;;5093580;28;20545;-54
2023/01/14 07:31:48;;;;;;;13.25;5.30;;;8.50;99.90;;;;;;5093337;28;20181;-55
2023/01/14 07:34:14;;;;;;;14.98;5.20;;;8.50;99.90;;;;;;5093036;28;20173;-54
2023/01/14 07:36:40;;;;;;;14.75;5.13;;;8.60;99.90;;;;;;5093412;28;20200;-54
2023/01/14 07:39:05;;;;;;;16.48;4.50;;;8.60;99.90;;;;;;5087764;28;20559;-56
2023/01/14 07:41:31;;;;;;;10.57;4.82;;;8.70;99.90;;;;;;5072931;28;20178;-55
2023/01/14 07:43:57;;;;;;;15.23;5.40;;;8.60;99.90;;;;;;5073211;28;20207;-57
2023/01/14 07:46:22;;;;;;;13.68;4.90;;;8.60;99.90;;;;;;5072920;28;20240;-56
2023/01/14 07:48:48;;;;;;;12.02;4.82;;;8.60;99.90;;;;;;5073352;28;20178;-57
2023/01/14 07:51:20;;;;;;;13.95;4.70;;;8.60;99.90;;;;;;5073215;28;20170;-56
2023/01/14 07:53:47;;;;;;;13.15;4.68;;;8.80;99.90;;;;;;5073165;28;20182;-57
2023/01/14 07:56:13;;;;;;;14.50;4.75;;;8.80;99.90;;;;;;5072947;28;20182;-57
2023/01/14 07:58:38;;;;;;;14.02;4.68;;;8.80;99.90;;;;;;5072727;28;20181;-56
2023/01/14 08:01:05;;;;;;;11.95;4.45;;;8.80;99.90;;;;;;5072982;28;20202;-57
2023/01/14 08:03:31;;;;;;;12.07;4.55;;;8.80;99.90;;;;;;5073247;28;20182;-56
2023/01/14 08:06:01;;;;;;;13.45;4.70;;;8.80;99.90;;;;;;5073004;28;20669;-56
2023/01/14 08:08:27;;;;;;;13.93;4.43;;;8.70;99.90;;;;;;5072933;28;20240;-56
2023/01/14 08:10:53;;;;;;;13.20;4.15;;;8.80;99.90;;;;;;5072551;28;20186;-54
2023/01/14 08:13:19;;;;;;;13.32;4.13;;;8.80;99.90;;;;;;5083164;28;20598;-56
2023/01/14 08:15:44;;;;;;;14.50;3.80;;;8.90;99.90;;;;;;5092892;28;20198;-55
2023/01/14 08:18:10;;;;;;;12.48;4.18;;;8.90;99.90;;;;;;5093199;28;20166;-55
2023/01/14 08:20:36;;;;;;;15.25;4.47;;;9.00;99.90;;;;;;5074977;28;20184;-57
2023/01/14 08:23:01;;;;;;;14.02;4.32;;;9.00;99.90;;;;;;5093124;28;20170;-55
2023/01/14 08:25:28;;;;;;;19.83;4.60;;;8.90;99.90;;;;;;5092637;28;20255;-55
2023/01/14 08:27:54;;;;;;;13.93;4.55;;;9.00;99.90;;;;;;5092797;28;20638;-57
2023/01/14 08:30:20;;;;;;;14.15;4.18;;;9.00;99.90;;;;;;5074692;28;20196;-56
2023/01/14 08:32:47;;;;;;;14.32;4.05;;;9.00;99.90;;;;;;5074916;28;20174;-55
2023/01/14 08:35:13;;;;;;;11.10;3.90;;;9.00;99.90;;;;;;5096461;28;20242;-55
2023/01/14 08:37:41;;;;;;;12.50;3.47;;;9.10;99.90;;;;;;5097346;28;20178;-55
2023/01/14 08:40:07;;;;;;;12.95;4.13;;;9.10;99.90;;;;;;5096126;28;20174;-57
2023/01/14 08:42:33;;;;;;;17.88;3.83;;;9.10;99.90;;;;;;5097036;28;20178;-56
2023/01/14 08:44:59;;;;;;;16.77;4.10;;;9.10;99.90;;;;;;5097203;28;20220;-57
2023/01/14 08:47:24;;;;;;;14.15;3.97;;;9.20;99.90;;;;;;5097137;28;20616;-54
2023/01/14 08:49:50;;;;;;;19.98;4.20;;;9.20;99.90;;;;;;5096915;28;20620;-54
2023/01/14 08:52:18;;;;;;;13.82;3.60;;;9.20;99.90;;;;;;5096998;28;20606;-55
2023/01/14 08:54:43;;;;;;;15.25;3.75;;;9.20;99.90;;;;;;5096789;28;20186;-54
2023/01/14 08:57:09;;;;;;;12.70;3.75;;;9.20;99.90;;;;;;5096691;28;20627;-55
2023/01/14 08:59:35;;;;;;;17.13;3.97;;;9.20;99.90;;;;;;5096570;28;20639;-55
2023/01/14 09:02:00;;;;;;;14.95;4.05;;;9.20;99.90;;;;;;5096722;28;20178;-55
2023/01/14 09:04:26;;;;;;;10.98;3.63;;;9.30;99.90;;;;;;5096573;28;20213;-54
2023/01/14 09:17:58;;;;;;;12.45;3.63;;;9.30;99.90;;;;;;5096810;28;20327;-55
2023/01/14 09:20:30;;;;;;;12.93;3.10;;;9.30;99.90;;;;;;5096193;28;20197;-55
2023/01/14 09:22:56;;;;;;;9.27;3.22;;;9.40;99.90;;;;;;5096604;28;20662;-55
2023/01/14 09:25:22;;;;;;;12.77;2.75;;;9.40;99.90;;;;;;5096307;28;20201;-55
2023/01/14 09:27:47;;;;;;;9.65;2.90;;;9.40;99.90;;;;;;5078262;28;20189;-56
2023/01/14 09:30:13;;;;;;;8.27;3.15;;;9.40;99.90;;;;;;5096283;28;20324;-55
2023/01/14 09:32:40;;;;;;;9.25;2.95;;;9.40;99.90;;;;;;5096056;28;20653;-55
2023/01/14 09:35:07;;;;;;;10.52;2.97;;;9.40;99.90;;;;;;5095863;28;20174;-55
2023/01/14 09:37:33;;;;;;;6.82;2.45;;;9.40;99.90;;;;;;5096170;28;20174;-54
2023/01/14 09:39:59;;;;;;;7.68;2.60;;;9.40;99.90;;;;;;5096452;28;20529;-55
2023/01/14 09:42:32;;;;;;;7.90;2.72;;;9.50;99.90;;;;;;5095844;28;20619;-54
2023/01/14 09:45:13;;;;;;;8.25;2.55;;;9.50;99.90;;;;;;5095089;28;20192;-54
2023/01/14 09:47:40;;;;;;;4.85;2.20;;;9.70;99.90;;;;;;5095985;28;20188;-55
2023/01/14 09:50:13;;;;;;;7.53;2.60;;;9.70;99.90;;;;;;5096162;28;20627;-53
2023/01/14 09:52:47;;;;;;;8.52;2.50;;;9.70;99.90;;;;;;5095769;28;20265;-54
2023/01/14 09:55:29;;;;;;;8.30;2.65;;;9.80;99.90;;;;;;5095714;28;20252;-54
2023/01/14 09:58:09;;;;;;;6.10;2.30;;;9.70;99.90;;;;;;5095628;28;20555;-55
2023/01/14 10:00:55;;;;;;;6.80;2.45;;;9.70;99.90;;;;;;5095699;28;20630;-56
2023/01/14 10:03:41;;;;;;;7.28;2.15;;;9.70;99.90;;;;;;5095536;28;20174;-54
2023/01/14 10:06:17;;;;;;;7.53;2.10;;;9.70;99.90;;;;;;5095359;28;20242;-54
2023/01/14 10:08:56;;;;;;;8.77;2.30;;;9.70;99.90;;;;;;5077330;28;20192;-56
2023/01/14 10:11:23;;;;;;;6.28;1.98;;;9.80;99.90;;;;;;5077309;28;20654;-54
2023/01/14 10:13:57;;;;;;;7.55;1.85;;;9.70;99.90;;;;;;5095217;28;20182;-54
2023/01/14 10:16:33;;;;;;;8.50;2.25;;;9.70;99.90;;;;;;5095321;28;20690;-54
2023/01/14 10:19:02;;;;;;;6.35;2.50;;;9.70;99.90;;;;;;5095256;28;20177;-55
2023/01/14 10:21:41;;;;;;;6.53;2.38;;;9.80;99.90;;;;;;5095210;28;20198;-55
2023/01/14 10:24:12;;;;;;;5.95;2.10;;;9.80;99.90;;;;;;5095394;28;20305;-54
2023/01/14 10:26:39;;;;;;;6.90;2.00;;;9.80;99.90;;;;;;5095026;28;20285;-54
2023/01/14 10:29:16;;;;;;;6.75;2.10;;;9.80;99.90;;;;;;5077065;28;20311;-54
2023/01/14 10:31:53;;;;;;;7.05;1.85;;;9.90;99.90;;;;;;5095051;28;20177;-55
2023/01/14 10:34:26;;;;;;;6.50;1.92;;;9.90;99.90;;;;;;5094977;28;20289;-53
2023/01/14 10:36:52;;;;;;;4.60;1.80;;;10.00;99.90;;;;;;5095034;28;20170;-54
2023/01/14 10:39:18;;;;;;;4.43;1.70;;;9.90;99.90;;;;;;5094784;28;20516;-54
2023/01/14 10:41:49;;;;;;;3.60;1.38;;;9.90;99.90;;;;;;5094631;28;20174;-55
2023/01/14 10:44:34;;;;;;;3.03;1.73;;;9.90;99.90;;;;;;5094839;28;20201;-55
2023/01/14 10:47:10;;;;;;;3.47;1.50;;;10.00;99.90;;;;;;5094729;28;20202;-54
2023/01/14 10:49:47;;;;;;;6.25;1.65;;;9.90;99.90;;;;;;5094404;28;20268;-54
2023/01/14 10:52:24;;;;;;;3.42;1.42;;;10.00;99.90;;;;;;5094743;28;20204;-54
2023/01/14 10:55:19;;;;;;;3.05;1.38;;;10.00;99.90;;;;;;5094465;28;20177;-55
2023/01/14 10:57:56;;;;;;;3.47;1.15;;;10.00;99.90;;;;;;5094436;28;20162;-55
2023/01/14 11:00:33;;;;;;;3.83;1.38;;;10.00;99.90;;;;;;5094381;28;20178;-55
2023/01/14 11:03:00;;;;;;;4.07;1.33;;;10.10;99.90;;;;;;5094467;28;20170;-57
2023/01/14 11:05:33;;;;;;;5.15;1.38;;;10.10;99.90;;;;;;5076220;28;20213;-55
2023/01/14 11:08:14;;;;;;;1.65;1.20;;;10.10;99.90;;;;;;5094386;28;20192;-55
2023/01/14 11:10:41;;;;;;;3.35;1.50;;;10.10;99.90;;;;;;5094066;28;20527;-54
2023/01/14 11:13:27;;;;;;;4.32;1.38;;;10.10;99.90;;;;;;5076017;28;20560;-55
2023/01/14 11:15:53;;;;;;;3.65;1.30;;;10.20;99.90;;;;;;5094317;28;20177;-55
2023/01/14 11:18:18;;;;;;;4.65;1.70;;;10.20;99.90;;;;;;5076008;28;20268;-54
2023/01/14 11:21:07;;;;;;;4.68;1.40;;;10.30;99.90;;;;;;5094127;28;20254;-54
2023/01/14 11:23:36;;;;;;;4.05;1.50;;;10.20;99.90;;;;;;5078140;28;20186;-54
2023/01/14 11:26:22;;;;;;;3.08;1.52;;;10.30;99.90;;;;;;5093918;28;20300;-54
2023/01/14 11:28:49;;;;;;;2.75;1.40;;;10.40;99.90;;;;;;5093946;28;20249;-56
2023/01/14 11:31:17;;;;;;;5.00;1.40;;;10.30;99.90;;;;;;5093817;28;20537;-54
2023/01/14 11:33:51;;;;;;;3.30;1.58;;;10.30;99.90;;;;;;5093611;28;20627;-54
2023/01/14 11:36:24;;;;;;;2.92;1.50;;;10.30;99.90;;;;;;5094189;28;20730;-53
2023/01/14 11:38:51;;;;;;;2.92;1.48;;;10.40;99.90;;;;;;5093773;28;20177;-56
2023/01/14 11:41:35;;;;;;;4.30;1.45;;;10.40;99.90;;;;;;5093895;28;20184;-54
2023/01/14 11:44:18;;;;;;;3.88;1.33;;;10.50;99.90;;;;;;5093494;28;20193;-54
2023/01/14 11:46:45;;;;;;;2.80;1.20;;;10.50;99.90;;;;;;5093759;28;20239;-54
2023/01/14 11:49:22;;;;;;;2.83;1.40;;;10.50;99.90;;;;;;5093671;28;20238;-54
2023/01/14 11:52:16;;;;;;;4.25;1.60;;;10.50;99.90;;;;;;5093465;28;20158;-55
2023/01/14 11:54:47;;;;;;;3.00;1.60;;;10.60;99.90;;;;;;5093815;28;20181;-55
2023/01/14 11:57:17;;;;;;;4.00;1.40;;;10.50;99.90;;;;;;5093657;28;20174;-54
2023/01/14 11:59:44;;;;;;;4.07;1.60;;;10.50;99.90;;;;;;5093619;28;20257;-55
2023/01/14 12:02:29;;;;;;;4.22;1.48;;;10.50;99.90;;;;;;5093308;28;20537;-55
2023/01/14 12:05:01;;;;;;;5.28;1.48;;;10.60;99.90;;;;;;5093303;28;20550;-54
2023/01/14 12:07:35;;;;;;;3.63;1.60;;;10.60;99.90;;;;;;5093319;28;20206;-54
2023/01/14 12:10:04;;;;;;;3.35;1.50;;;10.60;99.90;;;;;;5092934;28;20169;-54
2023/01/14 12:18:19;;;;;;;3.17;1.45;;;10.70;99.90;;;;;;5093689;28;20242;-54
2023/01/14 12:20:45;;;;;;;4.70;1.60;;;10.70;99.90;;;;;;5093777;28;20212;-55
2023/01/14 12:23:17;;;;;;;2.55;1.30;;;10.70;99.90;;;;;;5093129;28;20173;-54
2023/01/14 12:25:46;;;;;;;4.15;1.60;;;10.80;99.90;;;;;;5093036;28;20193;-55
2023/01/14 12:28:33;;;;;;;2.80;1.60;;;10.80;99.90;;;;;;5075216;28;20196;-54
2023/01/14 12:31:09;;;;;;;3.65;1.85;;;10.80;99.90;;;;;;5093164;28;20748;-55
2023/01/14 12:33:45;;;;;;;3.88;1.88;;;10.90;99.90;;;;;;5093174;28;20173;-57
2023/01/14 12:36:23;;;;;;;6.90;2.20;;;10.90;99.90;;;;;;5093180;28;20200;-54
2023/01/14 12:47:42;;;;;;;6.43;1.92;;;11.00;99.90;;;;;;5093435;28;20201;-55
2023/01/14 12:50:10;;;;;;;3.72;1.70;;;11.00;99.90;;;;;;5092835;28;20169;-54
2023/01/14 12:52:47;;;;;;;3.58;2.10;;;11.10;99.90;;;;;;5092650;28;20273;-55
2023/01/14 12:55:25;;;;;;;4.43;2.50;;;11.10;99.90;;;;;;5093204;28;20172;-54
2023/01/14 12:57:53;;;;;;;3.35;2.25;;;11.10;99.90;;;;;;5091262;28;20177;-56
2023/01/14 13:00:27;;;;;;;4.30;2.53;;;11.10;99.90;;;;;;5089518;28;20169;-56
2023/01/14 13:02:54;;;;;;;4.70;2.63;;;11.10;99.90;;;;;;5092689;28;20193;-54
2023/01/14 13:05:41;;;;;;;4.75;2.33;;;11.00;99.90;;;;;;5092516;28;20201;-54
2023/01/14 13:08:30;;;;;;;3.08;2.05;;;11.00;99.90;;;;;;5092845;28;20169;-52
2023/01/14 13:11:06;;;;;;;2.97;1.70;;;11.10;99.90;;;;;;5091293;28;20581;-56
2023/01/14 13:13:34;;;;;;;4.40;1.80;;;11.00;99.90;;;;;;5092574;28;20239;-55
2023/01/14 13:16:03;;;;;;;4.07;1.77;;;11.10;99.90;;;;;;5092748;28;20202;-55
2023/01/14 13:18:34;;;;;;;5.18;1.88;;;11.10;99.90;;;;;;5092663;28;20255;-55
2023/01/14 13:21:08;;;;;;;4.60;1.90;;;11.10;99.90;;;;;;5093860;28;20170;-54
2023/01/14 13:23:37;;;;;;;5.90;2.40;;;11.20;99.90;;;;;;5096219;28;20180;-54
2023/01/14 13:26:28;;;;;;;4.65;2.03;;;11.30;99.90;;;;;;5095862;28;20194;-54
2023/01/14 13:29:14;;;;;;;4.32;2.10;;;11.30;99.90;;;;;;5092136;28;20648;-54
2023/01/14 13:31:40;;;;;;;6.35;2.80;;;11.30;99.90;;;;;;5075677;28;20179;-54
2023/01/14 13:34:21;;;;;;;4.53;1.95;;;11.30;99.90;;;;;;5075485;28;20178;-55
2023/01/14 13:37:04;;;;;;;3.92;3.30;;;11.30;99.90;;;;;;5075444;28;20190;-55
2023/01/14 13:39:31;;;;;;;3.15;2.00;;;11.30;99.90;;;;;;5075755;28;20227;-55
2023/01/14 13:42:00;;;;;;;3.80;2.10;;;11.30;99.90;;;;;;5057683;28;20678;-54
2023/01/14 13:44:29;;;;;;;5.00;2.60;;;11.30;99.90;;;;;;5075296;28;20187;-54
2023/01/14 13:47:04;;;;;;;3.42;2.53;;;11.30;99.90;;;;;;5075218;28;20567;-55
2023/01/14 13:49:36;;;;;;;3.38;1.70;;;11.40;99.90;;;;;;5075734;28;20215;-54